sensor_id;sensor_type;location;lat;lon;timestamp;pressure;altitude;pressure_sealevel;temperature;humidity
9672;BME280;4874;43.568;27.824;2022-07-03T00:00:00;99289.78;;;21.88;100.00
9672;BME280;4874;43.568;27.824;2022-07-03T00:02:27;99289.56;;;21.70;100.00
9672;BME280;4874;43.568;27.824;2022-07-03T00:04:54;99284.56;;;21.73;100.00
9672;BME280;4874;43.568;27.824;2022-07-03T00:07:21;99289.56;;;21.76;100.00
9672;BME280;4874;43.568;27.824;2022-07-03T00:09:47;99284.56;;;21.99;100.00
9672;BME280;4874;43.568;27.824;2022-07-03T00:12:14;99271.50;;;22.80;100.00
9672;BME280;4874;43.568;27.824;2022-07-03T00:14:41;99288.16;;;23.21;100.00
9672;BME280;4874;43.568;27.824;2022-07-03T00:17:08;99294.91;;;23.05;100.00
9672;BME280;4874;43.568;27.824;2022-07-03T00:19:35;99284.09;;;22.35;100.00
9672;BME280;4874;43.568;27.824;2022-07-03T00:22:04;99286.25;;;21.87;100.00
9672;BME280;4874;43.568;27.824;2022-07-03T00:27:06;99284.81;;;21.91;100.00
9672;BME280;4874;43.568;27.824;2022-07-03T00:29:37;99274.38;;;22.01;100.00
9672;BME280;4874;43.568;27.824;2022-07-03T00:32:06;99283.09;;;22.30;100.00
9672;BME280;4874;43.568;27.824;2022-07-03T00:34:34;99283.56;;;21.81;100.00
9672;BME280;4874;43.568;27.824;2022-07-03T00:37:01;99275.44;;;21.61;100.00
9672;BME280;4874;43.568;27.824;2022-07-03T00:39:39;99271.47;;;21.70;100.00
9672;BME280;4874;43.568;27.824;2022-07-03T00:42:07;99273.13;;;22.10;100.00
9672;BME280;4874;43.568;27.824;2022-07-03T00:44:43;99261.91;;;22.13;100.00
9672;BME280;4874;43.568;27.824;2022-07-03T00:47:11;99259.91;;;22.53;100.00
9672;BME280;4874;43.568;27.824;2022-07-03T00:49:40;99252.16;;;21.73;100.00
9672;BME280;4874;43.568;27.824;2022-07-03T00:52:08;99249.03;;;22.02;100.00
9672;BME280;4874;43.568;27.824;2022-07-03T00:54:35;99256.50;;;21.74;100.00
9672;BME280;4874;43.568;27.824;2022-07-03T00:57:03;99254.00;;;21.92;100.00
9672;BME280;4874;43.568;27.824;2022-07-03T00:59:30;99240.28;;;22.07;100.00
9672;BME280;4874;43.568;27.824;2022-07-03T01:02:04;99238.97;;;22.29;100.00
9672;BME280;4874;43.568;27.824;2022-07-03T01:04:52;99251.44;;;22.37;100.00
9672;BME280;4874;43.568;27.824;2022-07-03T01:08:47;99245.16;;;22.43;100.00
9672;BME280;4874;43.568;27.824;2022-07-03T01:13:18;99248.69;;;23.00;100.00
9672;BME280;4874;43.568;27.824;2022-07-03T01:16:06;99246.50;;;22.84;100.00
9672;BME280;4874;43.568;27.824;2022-07-03T01:26:47;99251.72;;;21.96;100.00
9672;BME280;4874;43.568;27.824;2022-07-03T01:29:22;99248.97;;;21.31;100.00
9672;BME280;4874;43.568;27.824;2022-07-03T01:31:51;99248.34;;;21.16;100.00
9672;BME280;4874;43.568;27.824;2022-07-03T01:34:22;99251.91;;;21.42;100.00
9672;BME280;4874;43.568;27.824;2022-07-03T01:36:50;99253.56;;;21.37;100.00
9672;BME280;4874;43.568;27.824;2022-07-03T01:39:23;99253.94;;;21.21;100.00
9672;BME280;4874;43.568;27.824;2022-07-03T01:42:13;99258.16;;;20.76;100.00
9672;BME280;4874;43.568;27.824;2022-07-03T01:44:41;99247.34;;;21.43;100.00
9672;BME280;4874;43.568;27.824;2022-07-03T01:47:09;99246.53;;;21.42;100.00
9672;BME280;4874;43.568;27.824;2022-07-03T01:49:38;99251.50;;;21.45;100.00
9672;BME280;4874;43.568;27.824;2022-07-03T01:52:08;99263.94;;;21.27;100.00
9672;BME280;4874;43.568;27.824;2022-07-03T01:54:55;99256.28;;;21.37;100.00
9672;BME280;4874;43.568;27.824;2022-07-03T01:57:23;99235.75;;;20.75;100.00
9672;BME280;4874;43.568;27.824;2022-07-03T01:59:53;99252.59;;;20.37;100.00
9672;BME280;4874;43.568;27.824;2022-07-03T02:04:58;99261.88;;;20.68;100.00
9672;BME280;4874;43.568;27.824;2022-07-03T02:10:02;99274.09;;;20.64;100.00
9672;BME280;4874;43.568;27.824;2022-07-03T02:12:51;99267.03;;;20.57;100.00
9672;BME280;4874;43.568;27.824;2022-07-03T02:15:34;99271.28;;;20.85;100.00
9672;BME280;4874;43.568;27.824;2022-07-03T02:18:13;99268.91;;;20.69;100.00
9672;BME280;4874;43.568;27.824;2022-07-03T02:20:46;99272.72;;;20.88;100.00
9672;BME280;4874;43.568;27.824;2022-07-03T02:23:19;99259.34;;;21.21;100.00
9672;BME280;4874;43.568;27.824;2022-07-03T02:25:51;99267.88;;;21.18;100.00
9672;BME280;4874;43.568;27.824;2022-07-03T02:28:30;99244.00;;;21.28;100.00
9672;BME280;4874;43.568;27.824;2022-07-03T02:30:59;99266.50;;;21.87;100.00
9672;BME280;4874;43.568;27.824;2022-07-03T02:33:31;99269.94;;;21.09;100.00
9672;BME280;4874;43.568;27.824;2022-07-03T02:35:59;99267.75;;;20.85;100.00
9672;BME280;4874;43.568;27.824;2022-07-03T02:38:27;99284.16;;;20.15;100.00
9672;BME280;4874;43.568;27.824;2022-07-03T02:44:11;99283.13;;;21.97;100.00
9672;BME280;4874;43.568;27.824;2022-07-03T02:57:38;99268.22;;;19.86;100.00
9672;BME280;4874;43.568;27.824;2022-07-03T03:00:08;99294.16;;;19.66;100.00
9672;BME280;4874;43.568;27.824;2022-07-03T03:03:05;99284.38;;;19.86;100.00
9672;BME280;4874;43.568;27.824;2022-07-03T03:05:40;99292.59;;;20.06;100.00
9672;BME280;4874;43.568;27.824;2022-07-03T03:08:15;99294.31;;;20.13;100.00
9672;BME280;4874;43.568;27.824;2022-07-03T03:10:43;99296.31;;;20.66;100.00
9672;BME280;4874;43.568;27.824;2022-07-03T03:13:12;99282.13;;;20.51;100.00
9672;BME280;4874;43.568;27.824;2022-07-03T03:15:58;99312.19;;;20.48;100.00
9672;BME280;4874;43.568;27.824;2022-07-03T03:18:30;99303.94;;;20.22;100.00
9672;BME280;4874;43.568;27.824;2022-07-03T03:20:59;99297.00;;;19.85;100.00
9672;BME280;4874;43.568;27.824;2022-07-03T03:26:18;99306.63;;;19.73;100.00
9672;BME280;4874;43.568;27.824;2022-07-03T03:28:46;99293.59;;;20.26;100.00
9672;BME280;4874;43.568;27.824;2022-07-03T03:31:13;99305.50;;;20.38;100.00
9672;BME280;4874;43.568;27.824;2022-07-03T03:33:48;99296.94;;;20.68;100.00
9672;BME280;4874;43.568;27.824;2022-07-03T03:36:18;99290.16;;;21.46;100.00
9672;BME280;4874;43.568;27.824;2022-07-03T03:38:46;99292.06;;;20.91;100.00
9672;BME280;4874;43.568;27.824;2022-07-03T03:41:13;99218.84;;;21.60;100.00
9672;BME280;4874;43.568;27.824;2022-07-03T03:43:43;99282.91;;;21.66;100.00
9672;BME280;4874;43.568;27.824;2022-07-03T03:46:10;99284.13;;;20.77;100.00
9672;BME280;4874;43.568;27.824;2022-07-03T03:48:37;99286.28;;;20.94;100.00
9672;BME280;4874;43.568;27.824;2022-07-03T03:51:04;99293.88;;;20.84;100.00
9672;BME280;4874;43.568;27.824;2022-07-03T03:53:31;99279.69;;;21.10;100.00
9672;BME280;4874;43.568;27.824;2022-07-03T03:56:05;99283.75;;;21.79;100.00
9672;BME280;4874;43.568;27.824;2022-07-03T03:58:35;99290.22;;;21.91;100.00
9672;BME280;4874;43.568;27.824;2022-07-03T04:01:03;99297.63;;;21.63;100.00
9672;BME280;4874;43.568;27.824;2022-07-03T04:03:31;99296.03;;;21.88;100.00
9672;BME280;4874;43.568;27.824;2022-07-03T04:05:59;99289.78;;;21.94;100.00
9672;BME280;4874;43.568;27.824;2022-07-03T04:08:26;99302.03;;;22.16;100.00
9672;BME280;4874;43.568;27.824;2022-07-03T04:10:53;99293.47;;;22.33;100.00
9672;BME280;4874;43.568;27.824;2022-07-03T04:13:21;99273.53;;;22.21;100.00
9672;BME280;4874;43.568;27.824;2022-07-03T04:15:49;99285.94;;;22.67;100.00
9672;BME280;4874;43.568;27.824;2022-07-03T04:18:16;99294.09;;;23.05;100.00
9672;BME280;4874;43.568;27.824;2022-07-03T04:20:43;99300.91;;;23.20;100.00
9672;BME280;4874;43.568;27.824;2022-07-03T04:23:10;99293.53;;;23.34;100.00
9672;BME280;4874;43.568;27.824;2022-07-03T04:25:37;99291.66;;;22.90;100.00
9672;BME280;4874;43.568;27.824;2022-07-03T04:28:04;99294.19;;;22.85;100.00
9672;BME280;4874;43.568;27.824;2022-07-03T04:30:47;99271.78;;;22.65;100.00
9672;BME280;4874;43.568;27.824;2022-07-03T04:33:14;99246.06;;;22.87;100.00
9672;BME280;4874;43.568;27.824;2022-07-03T04:35:41;99294.72;;;23.07;100.00
9672;BME280;4874;43.568;27.824;2022-07-03T04:38:08;99302.06;;;22.93;100.00
9672;BME280;4874;43.568;27.824;2022-07-03T04:40:34;99303.31;;;22.91;100.00
9672;BME280;4874;43.568;27.824;2022-07-03T04:43:01;99302.19;;;22.54;100.00
9672;BME280;4874;43.568;27.824;2022-07-03T04:45:28;99303.06;;;22.99;100.00
9672;BME280;4874;43.568;27.824;2022-07-03T04:47:55;99289.13;;;22.32;100.00
9672;BME280;4874;43.568;27.824;2022-07-03T04:50:21;99302.59;;;22.64;100.00
9672;BME280;4874;43.568;27.824;2022-07-03T04:52:48;99306.69;;;22.86;100.00
9672;BME280;4874;43.568;27.824;2022-07-03T04:55:15;99303.41;;;22.65;100.00
9672;BME280;4874;43.568;27.824;2022-07-03T04:57:42;99304.25;;;22.65;100.00
9672;BME280;4874;43.568;27.824;2022-07-03T05:00:09;99302.16;;;22.67;100.00
9672;BME280;4874;43.568;27.824;2022-07-03T05:02:36;99296.72;;;22.74;100.00
9672;BME280;4874;43.568;27.824;2022-07-03T05:05:03;99308.44;;;23.12;100.00
9672;BME280;4874;43.568;27.824;2022-07-03T05:07:30;99291.22;;;23.38;100.00
9672;BME280;4874;43.568;27.824;2022-07-03T05:09:56;99265.84;;;23.32;100.00
9672;BME280;4874;43.568;27.824;2022-07-03T05:12:24;99294.50;;;23.08;100.00
9672;BME280;4874;43.568;27.824;2022-07-03T05:14:51;99296.72;;;23.56;100.00
9672;BME280;4874;43.568;27.824;2022-07-03T05:17:18;99290.44;;;23.62;100.00
9672;BME280;4874;43.568;27.824;2022-07-03T05:19:46;99273.94;;;23.88;100.00
9672;BME280;4874;43.568;27.824;2022-07-03T05:22:13;99272.13;;;23.82;100.00
9672;BME280;4874;43.568;27.824;2022-07-03T05:24:40;99289.63;;;24.10;100.00
9672;BME280;4874;43.568;27.824;2022-07-03T05:27:06;99302.88;;;24.25;100.00
9672;BME280;4874;43.568;27.824;2022-07-03T05:29:33;99307.75;;;24.34;100.00
9672;BME280;4874;43.568;27.824;2022-07-03T05:32:04;99306.13;;;24.33;100.00
9672;BME280;4874;43.568;27.824;2022-07-03T05:34:31;99298.34;;;24.55;100.00
9672;BME280;4874;43.568;27.824;2022-07-03T05:36:57;99302.59;;;25.05;100.00
9672;BME280;4874;43.568;27.824;2022-07-03T05:39:24;99307.84;;;25.18;100.00
9672;BME280;4874;43.568;27.824;2022-07-03T05:42:01;99302.09;;;25.26;100.00
9672;BME280;4874;43.568;27.824;2022-07-03T05:44:27;99303.09;;;25.73;100.00
9672;BME280;4874;43.568;27.824;2022-07-03T05:46:54;99309.22;;;26.10;100.00
9672;BME280;4874;43.568;27.824;2022-07-03T05:49:21;99307.44;;;26.04;100.00
9672;BME280;4874;43.568;27.824;2022-07-03T05:51:48;99309.56;;;26.59;100.00
9672;BME280;4874;43.568;27.824;2022-07-03T05:54:14;99308.09;;;25.88;100.00
9672;BME280;4874;43.568;27.824;2022-07-03T05:56:41;99314.31;;;26.41;100.00
9672;BME280;4874;43.568;27.824;2022-07-03T05:59:08;99306.25;;;26.23;100.00
9672;BME280;4874;43.568;27.824;2022-07-03T06:01:35;99314.66;;;26.33;100.00
9672;BME280;4874;43.568;27.824;2022-07-03T06:04:01;99312.06;;;26.73;100.00
9672;BME280;4874;43.568;27.824;2022-07-03T06:06:28;99307.97;;;26.98;100.00
9672;BME280;4874;43.568;27.824;2022-07-03T06:08:55;99312.66;;;26.51;100.00
9672;BME280;4874;43.568;27.824;2022-07-03T06:11:22;99320.94;;;26.45;100.00
9672;BME280;4874;43.568;27.824;2022-07-03T06:13:49;99322.31;;;26.01;98.98
9672;BME280;4874;43.568;27.824;2022-07-03T06:16:15;99311.44;;;26.59;100.00
9672;BME280;4874;43.568;27.824;2022-07-03T06:18:42;99308.84;;;26.52;100.00
9672;BME280;4874;43.568;27.824;2022-07-03T06:21:10;99319.41;;;26.37;100.00
9672;BME280;4874;43.568;27.824;2022-07-03T06:23:36;99309.63;;;26.99;100.00
9672;BME280;4874;43.568;27.824;2022-07-03T06:26:12;99303.44;;;26.41;100.00
9672;BME280;4874;43.568;27.824;2022-07-03T06:28:39;99326.47;;;26.96;100.00
9672;BME280;4874;43.568;27.824;2022-07-03T06:31:05;99309.13;;;26.39;100.00
9672;BME280;4874;43.568;27.824;2022-07-03T06:33:32;99323.19;;;26.71;100.00
9672;BME280;4874;43.568;27.824;2022-07-03T06:35:59;99322.44;;;26.99;100.00
9672;BME280;4874;43.568;27.824;2022-07-03T06:38:26;99316.53;;;26.90;100.00
9672;BME280;4874;43.568;27.824;2022-07-03T06:40:53;99322.53;;;27.04;100.00
9672;BME280;4874;43.568;27.824;2022-07-03T06:43:19;99308.69;;;26.94;100.00
9672;BME280;4874;43.568;27.824;2022-07-03T06:45:46;99319.34;;;26.95;100.00
9672;BME280;4874;43.568;27.824;2022-07-03T06:48:13;99321.00;;;27.64;99.88
9672;BME280;4874;43.568;27.824;2022-07-03T06:50:40;99297.91;;;27.38;91.76
9672;BME280;4874;43.568;27.824;2022-07-03T06:53:06;99319.03;;;27.31;87.89
9672;BME280;4874;43.568;27.824;2022-07-03T06:55:33;99321.16;;;27.29;88.65
9672;BME280;4874;43.568;27.824;2022-07-03T06:58:00;99318.06;;;27.26;88.38
9672;BME280;4874;43.568;27.824;2022-07-03T07:00:27;99306.25;;;27.48;83.17
9672;BME280;4874;43.568;27.824;2022-07-03T07:02:54;99314.88;;;27.57;82.68
9672;BME280;4874;43.568;27.824;2022-07-03T07:05:24;99321.66;;;28.16;81.52
9672;BME280;4874;43.568;27.824;2022-07-03T07:07:51;99331.25;;;28.18;78.35
9672;BME280;4874;43.568;27.824;2022-07-03T07:10:18;99326.72;;;27.79;71.20
9672;BME280;4874;43.568;27.824;2022-07-03T07:12:44;99317.06;;;27.71;75.89
9672;BME280;4874;43.568;27.824;2022-07-03T07:15:11;99325.09;;;27.78;76.04
9672;BME280;4874;43.568;27.824;2022-07-03T07:17:38;99303.59;;;27.82;76.53
9672;BME280;4874;43.568;27.824;2022-07-03T07:20:05;99331.19;;;28.30;76.53
9672;BME280;4874;43.568;27.824;2022-07-03T07:22:32;99330.53;;;28.77;71.98
9672;BME280;4874;43.568;27.824;2022-07-03T07:24:58;99331.66;;;28.81;73.30
9672;BME280;4874;43.568;27.824;2022-07-03T07:27:25;99312.53;;;28.27;74.04
9672;BME280;4874;43.568;27.824;2022-07-03T07:29:52;99328.69;;;27.95;74.72
9672;BME280;4874;43.568;27.824;2022-07-03T07:32:18;99332.09;;;28.19;73.87
9672;BME280;4874;43.568;27.824;2022-07-03T07:34:45;99329.97;;;27.76;75.83
9672;BME280;4874;43.568;27.824;2022-07-03T07:37:12;99333.00;;;28.57;75.79
9672;BME280;4874;43.568;27.824;2022-07-03T07:39:39;99338.31;;;29.07;74.23
9672;BME280;4874;43.568;27.824;2022-07-03T07:42:06;99324.91;;;28.13;73.06
9672;BME280;4874;43.568;27.824;2022-07-03T07:44:32;99333.56;;;28.10;76.17
9672;BME280;4874;43.568;27.824;2022-07-03T07:46:59;99333.00;;;28.57;76.34
9672;BME280;4874;43.568;27.824;2022-07-03T07:49:26;99327.84;;;29.21;72.59
9672;BME280;4874;43.568;27.824;2022-07-03T07:51:53;99325.47;;;28.31;75.63
9672;BME280;4874;43.568;27.824;2022-07-03T07:54:19;99333.38;;;28.66;73.30
9672;BME280;4874;43.568;27.824;2022-07-03T07:56:46;99329.97;;;28.97;81.04
9672;BME280;4874;43.568;27.824;2022-07-03T07:59:13;99326.28;;;29.08;63.24
9672;BME280;4874;43.568;27.824;2022-07-03T08:01:40;99316.25;;;29.35;59.68
9672;BME280;4874;43.568;27.824;2022-07-03T08:04:25;99331.41;;;28.12;65.43
9672;BME280;4874;43.568;27.824;2022-07-03T08:07:10;99335.91;;;29.11;64.44
9672;BME280;4874;43.568;27.824;2022-07-03T08:09:37;99337.13;;;28.27;58.56
9672;BME280;4874;43.568;27.824;2022-07-03T08:12:05;99330.50;;;28.39;60.14
9672;BME280;4874;43.568;27.824;2022-07-03T08:14:32;99341.06;;;28.69;60.83
9672;BME280;4874;43.568;27.824;2022-07-03T08:16:59;99346.06;;;29.37;57.79
9672;BME280;4874;43.568;27.824;2022-07-03T08:19:26;99321.06;;;28.85;59.67
9672;BME280;4874;43.568;27.824;2022-07-03T08:21:52;99341.09;;;28.36;62.85
9672;BME280;4874;43.568;27.824;2022-07-03T08:24:19;99343.97;;;28.46;61.81
9672;BME280;4874;43.568;27.824;2022-07-03T08:26:46;99347.31;;;28.31;61.69
9672;BME280;4874;43.568;27.824;2022-07-03T08:29:13;99337.38;;;29.18;62.13
9672;BME280;4874;43.568;27.824;2022-07-03T08:31:39;99336.06;;;29.47;63.73
9672;BME280;4874;43.568;27.824;2022-07-03T08:34:07;99331.00;;;29.34;61.74
9672;BME280;4874;43.568;27.824;2022-07-03T08:36:35;99333.56;;;29.94;59.65
9672;BME280;4874;43.568;27.824;2022-07-03T08:39:02;99330.19;;;29.60;60.25
9672;BME280;4874;43.568;27.824;2022-07-03T08:41:30;99333.22;;;29.37;60.37
9672;BME280;4874;43.568;27.824;2022-07-03T08:43:59;99325.72;;;29.76;60.28
9672;BME280;4874;43.568;27.824;2022-07-03T08:46:26;99332.22;;;29.22;60.41
9672;BME280;4874;43.568;27.824;2022-07-03T08:48:58;99301.97;;;29.33;59.91
9672;BME280;4874;43.568;27.824;2022-07-03T08:51:26;99328.44;;;29.49;60.61
9672;BME280;4874;43.568;27.824;2022-07-03T08:53:54;99333.38;;;29.52;60.73
9672;BME280;4874;43.568;27.824;2022-07-03T08:56:22;99330.69;;;29.31;59.68
9672;BME280;4874;43.568;27.824;2022-07-03T08:58:49;99339.97;;;29.08;56.77
9672;BME280;4874;43.568;27.824;2022-07-03T09:01:17;99340.16;;;29.02;55.58
9672;BME280;4874;43.568;27.824;2022-07-03T09:03:48;99344.72;;;28.96;51.79
9672;BME280;4874;43.568;27.824;2022-07-03T09:06:16;99342.28;;;29.16;52.26
9672;BME280;4874;43.568;27.824;2022-07-03T09:08:43;99331.44;;;29.74;51.41
9672;BME280;4874;43.568;27.824;2022-07-03T09:11:10;99335.84;;;29.54;50.16
9672;BME280;4874;43.568;27.824;2022-07-03T09:13:37;99321.28;;;30.01;49.66
9672;BME280;4874;43.568;27.824;2022-07-03T09:16:04;99335.97;;;29.37;48.77
9672;BME280;4874;43.568;27.824;2022-07-03T09:18:43;99343.63;;;29.62;48.29
9672;BME280;4874;43.568;27.824;2022-07-03T09:21:10;99336.06;;;30.00;48.22
9672;BME280;4874;43.568;27.824;2022-07-03T09:23:39;99331.84;;;29.61;46.91
9672;BME280;4874;43.568;27.824;2022-07-03T09:26:12;99339.47;;;29.59;48.18
9672;BME280;4874;43.568;27.824;2022-07-03T09:28:47;99333.22;;;29.37;45.54
9672;BME280;4874;43.568;27.824;2022-07-03T09:31:15;99332.16;;;29.65;46.18
9672;BME280;4874;43.568;27.824;2022-07-03T09:39:22;99328.25;;;29.82;54.17
9672;BME280;4874;43.568;27.824;2022-07-03T09:44:41;99323.59;;;30.15;64.94
9672;BME280;4874;43.568;27.824;2022-07-03T09:47:25;99332.81;;;29.50;64.39
9672;BME280;4874;43.568;27.824;2022-07-03T09:49:59;99328.66;;;28.45;66.04
9672;BME280;4874;43.568;27.824;2022-07-03T09:52:29;99322.66;;;29.72;62.89
9672;BME280;4874;43.568;27.824;2022-07-03T09:54:58;99316.78;;;29.85;57.88
9672;BME280;4874;43.568;27.824;2022-07-03T09:57:29;99316.25;;;30.20;52.23
9672;BME280;4874;43.568;27.824;2022-07-03T10:00:22;99318.22;;;29.66;49.69
9672;BME280;4874;43.568;27.824;2022-07-03T10:03:09;99314.56;;;30.14;50.39
9672;BME280;4874;43.568;27.824;2022-07-03T10:05:39;99307.56;;;29.96;48.62
9672;BME280;4874;43.568;27.824;2022-07-03T10:08:10;99309.53;;;30.01;48.94
9672;BME280;4874;43.568;27.824;2022-07-03T10:10:45;99309.44;;;29.38;52.19
9672;BME280;4874;43.568;27.824;2022-07-03T10:13:13;99309.84;;;29.51;49.12
9672;BME280;4874;43.568;27.824;2022-07-03T10:15:41;99307.09;;;30.41;49.50
9672;BME280;4874;43.568;27.824;2022-07-03T10:18:10;99312.25;;;29.69;46.25
9672;BME280;4874;43.568;27.824;2022-07-03T10:23:10;99301.47;;;29.63;44.60
9672;BME280;4874;43.568;27.824;2022-07-03T10:25:41;99297.84;;;30.16;44.76
9672;BME280;4874;43.568;27.824;2022-07-03T10:28:11;99296.31;;;29.66;44.40
9672;BME280;4874;43.568;27.824;2022-07-03T10:30:39;99293.25;;;29.89;44.16
9672;BME280;4874;43.568;27.824;2022-07-03T10:33:06;99292.47;;;30.26;44.15
9672;BME280;4874;43.568;27.824;2022-07-03T10:35:35;99294.78;;;30.39;43.74
9672;BME280;4874;43.568;27.824;2022-07-03T10:43:48;99281.91;;;30.08;50.11
9672;BME280;4874;43.568;27.824;2022-07-03T10:46:33;99276.31;;;29.92;54.77
9672;BME280;4874;43.568;27.824;2022-07-03T10:51:31;99270.78;;;30.61;49.60
9672;BME280;4874;43.568;27.824;2022-07-03T11:05:22;99266.66;;;30.17;50.75
9672;BME280;4874;43.568;27.824;2022-07-03T11:12:58;99255.66;;;30.12;53.89
9672;BME280;4874;43.568;27.824;2022-07-03T11:20:32;99248.63;;;29.89;50.54
9672;BME280;4874;43.568;27.824;2022-07-03T11:25:42;99252.41;;;29.83;52.56
9672;BME280;4874;43.568;27.824;2022-07-03T11:28:54;99248.28;;;30.17;51.55
9672;BME280;4874;43.568;27.824;2022-07-03T11:31:22;99239.22;;;30.53;51.48
9672;BME280;4874;43.568;27.824;2022-07-03T11:36:30;99239.94;;;29.65;49.82
9672;BME280;4874;43.568;27.824;2022-07-03T11:41:42;99251.44;;;29.99;49.76
9672;BME280;4874;43.568;27.824;2022-07-03T11:44:14;99250.47;;;29.52;49.71
9672;BME280;4874;43.568;27.824;2022-07-03T11:46:41;99235.53;;;29.91;49.87
9672;BME280;4874;43.568;27.824;2022-07-03T11:49:10;99246.63;;;29.79;48.55
9672;BME280;4874;43.568;27.824;2022-07-03T11:51:40;99237.31;;;29.75;50.28
9672;BME280;4874;43.568;27.824;2022-07-03T11:54:07;99252.94;;;29.80;49.90
9672;BME280;4874;43.568;27.824;2022-07-03T11:56:36;99241.91;;;29.70;48.44
9672;BME280;4874;43.568;27.824;2022-07-03T11:59:04;99247.13;;;29.71;48.67
9672;BME280;4874;43.568;27.824;2022-07-03T12:01:38;99250.31;;;29.63;47.29
9672;BME280;4874;43.568;27.824;2022-07-03T12:04:10;99238.97;;;29.23;48.16
9672;BME280;4874;43.568;27.824;2022-07-03T12:06:43;99245.91;;;29.89;47.63
9672;BME280;4874;43.568;27.824;2022-07-03T12:11:40;99241.06;;;29.69;47.71
9672;BME280;4874;43.568;27.824;2022-07-03T12:14:06;99241.72;;;29.81;49.56
9672;BME280;4874;43.568;27.824;2022-07-03T12:16:34;99235.75;;;29.89;46.82
9672;BME280;4874;43.568;27.824;2022-07-03T12:19:05;99238.88;;;30.40;46.91
9672;BME280;4874;43.568;27.824;2022-07-03T12:21:38;99238.63;;;30.05;47.32
9672;BME280;4874;43.568;27.824;2022-07-03T12:24:10;99233.91;;;30.00;46.50
9672;BME280;4874;43.568;27.824;2022-07-03T12:26:37;99231.53;;;30.14;47.36
9672;BME280;4874;43.568;27.824;2022-07-03T12:29:06;99237.03;;;30.14;46.95
9672;BME280;4874;43.568;27.824;2022-07-03T12:31:34;99241.16;;;30.53;46.60
9672;BME280;4874;43.568;27.824;2022-07-03T12:34:02;99229.63;;;30.51;44.82
9672;BME280;4874;43.568;27.824;2022-07-03T12:36:29;99220.75;;;30.34;45.33
9672;BME280;4874;43.568;27.824;2022-07-03T12:38:57;99234.47;;;30.34;46.16
9672;BME280;4874;43.568;27.824;2022-07-03T12:41:24;99231.38;;;29.30;46.92
9672;BME280;4874;43.568;27.824;2022-07-03T12:43:52;99226.19;;;29.60;48.66
9672;BME280;4874;43.568;27.824;2022-07-03T12:46:21;99235.81;;;29.94;45.99
9672;BME280;4874;43.568;27.824;2022-07-03T12:48:53;99229.78;;;29.66;46.89
9672;BME280;4874;43.568;27.824;2022-07-03T12:51:43;99228.22;;;29.70;46.49
9672;BME280;4874;43.568;27.824;2022-07-03T12:54:36;99222.38;;;29.93;46.25
9672;BME280;4874;43.568;27.824;2022-07-03T12:57:07;99221.06;;;30.37;47.22
9672;BME280;4874;43.568;27.824;2022-07-03T13:00:06;99220.25;;;29.10;46.98
9672;BME280;4874;43.568;27.824;2022-07-03T13:02:34;99224.31;;;29.92;46.85
9672;BME280;4874;43.568;27.824;2022-07-03T13:07:40;99224.81;;;29.89;45.45
9672;BME280;4874;43.568;27.824;2022-07-03T13:10:08;99225.75;;;29.68;46.52
9672;BME280;4874;43.568;27.824;2022-07-03T13:12:45;99220.25;;;29.10;45.73
9672;BME280;4874;43.568;27.824;2022-07-03T13:15:12;99216.09;;;29.92;46.65
9672;BME280;4874;43.568;27.824;2022-07-03T13:22:58;99215.47;;;29.54;45.64
9672;BME280;4874;43.568;27.824;2022-07-03T13:25:25;99216.72;;;29.41;46.96
9672;BME280;4874;43.568;27.824;2022-07-03T13:28:03;99218.22;;;29.85;49.68
9672;BME280;4874;43.568;27.824;2022-07-03T13:30:30;99217.03;;;30.08;45.83
9672;BME280;4874;43.568;27.824;2022-07-03T13:32:56;99197.63;;;29.20;45.36
9672;BME280;4874;43.568;27.824;2022-07-03T13:35:23;99212.50;;;29.92;46.31
9672;BME280;4874;43.568;27.824;2022-07-03T13:37:50;99205.59;;;29.84;45.22
9672;BME280;4874;43.568;27.824;2022-07-03T13:40:17;99212.81;;;29.32;46.70
9672;BME280;4874;43.568;27.824;2022-07-03T13:42:47;99209.59;;;29.67;45.52
9672;BME280;4874;43.568;27.824;2022-07-03T13:45:14;99211.31;;;29.20;45.11
9672;BME280;4874;43.568;27.824;2022-07-03T13:47:41;99195.63;;;29.10;45.54
9672;BME280;4874;43.568;27.824;2022-07-03T13:50:08;99210.72;;;28.91;45.74
9672;BME280;4874;43.568;27.824;2022-07-03T13:52:36;99202.59;;;28.53;46.12
9672;BME280;4874;43.568;27.824;2022-07-03T13:55:04;99190.63;;;29.29;45.38
9672;BME280;4874;43.568;27.824;2022-07-03T13:57:31;99202.59;;;29.54;46.13
9672;BME280;4874;43.568;27.824;2022-07-03T13:59:59;99195.16;;;29.76;44.27
9672;BME280;4874;43.568;27.824;2022-07-03T14:02:26;99193.81;;;29.52;44.22
9672;BME280;4874;43.568;27.824;2022-07-03T14:04:53;99204.84;;;29.62;46.82
9672;BME280;4874;43.568;27.824;2022-07-03T14:07:24;99201.75;;;28.74;43.49
9672;BME280;4874;43.568;27.824;2022-07-03T14:09:51;99195.88;;;29.09;44.59
9672;BME280;4874;43.568;27.824;2022-07-03T14:12:17;99188.09;;;29.22;45.30
9672;BME280;4874;43.568;27.824;2022-07-03T14:14:44;99194.44;;;28.58;45.70
9672;BME280;4874;43.568;27.824;2022-07-03T14:17:11;99185.13;;;28.54;45.20
9672;BME280;4874;43.568;27.824;2022-07-03T14:19:38;99185.31;;;28.69;46.19
9672;BME280;4874;43.568;27.824;2022-07-03T14:22:04;99191.59;;;29.18;45.69
9672;BME280;4874;43.568;27.824;2022-07-03T14:24:31;99188.81;;;29.39;46.25
9672;BME280;4874;43.568;27.824;2022-07-03T14:26:58;99182.31;;;28.97;44.76
9672;BME280;4874;43.568;27.824;2022-07-03T14:29:43;99181.56;;;28.53;45.03
9672;BME280;4874;43.568;27.824;2022-07-03T14:32:28;99168.75;;;28.80;46.30
9672;BME280;4874;43.568;27.824;2022-07-03T14:34:56;99177.84;;;28.86;44.00
9672;BME280;4874;43.568;27.824;2022-07-03T14:37:23;99181.09;;;28.83;43.91
9672;BME280;4874;43.568;27.824;2022-07-03T14:39:50;99161.38;;;29.08;44.98
9672;BME280;4874;43.568;27.824;2022-07-03T14:42:17;99187.06;;;28.80;44.08
9672;BME280;4874;43.568;27.824;2022-07-03T14:44:45;99174.28;;;28.85;48.34
9672;BME280;4874;43.568;27.824;2022-07-03T14:47:12;99187.78;;;28.70;44.97
9672;BME280;4874;43.568;27.824;2022-07-03T14:49:39;99185.31;;;28.69;44.42
9672;BME280;4874;43.568;27.824;2022-07-03T14:52:06;99162.59;;;28.25;46.07